Time;durP1;ratioP1;P1;durP2;ratioP2;P2;SDS_P1;SDS_P2;PMS_P1;PMS_P2;Temp;Humidity;BMP_temperature;BMP_pressure;BME280_temperature;BME280_humidity;BME280_pressure;Samples;Min_cycle;Max_cycle;Signal;HPM_P1;HPM_P2
2023/10/29 00:02:18;;;;;;;5.47;3.30;;;;;;;14.55;58.33;96110.31;5031602;28;20223;-68
2023/10/29 00:04:43;;;;;;;7.60;3.30;;;;;;;14.50;58.32;96102.22;5037794;28;20325;-69
2023/10/29 00:07:09;;;;;;;6.50;3.00;;;;;;;14.50;58.71;96107.47;5030137;28;20269;-69
2023/10/29 00:09:35;;;;;;;5.50;3.23;;;;;;;14.49;58.90;96108.50;5040010;28;20195;-71
2023/10/29 00:12:00;;;;;;;3.90;3.30;;;;;;;14.51;58.73;96109.09;5040613;28;20963;-69
2023/10/29 00:14:25;;;;;;;6.03;3.60;;;;;;;14.48;58.96;96120.06;5036011;28;20196;-69
2023/10/29 00:16:51;;;;;;;6.17;3.60;;;;;;;14.47;59.41;96129.00;5043009;28;20278;-70
2023/10/29 00:19:16;;;;;;;10.00;3.17;;;;;;;14.51;58.96;96122.28;5036816;28;20253;-69
2023/10/29 00:21:42;;;;;;;5.00;2.73;;;;;;;14.48;58.16;96129.78;5029071;28;20261;-69
2023/10/29 00:24:08;;;;;;;4.53;2.87;;;;;;;14.42;58.11;96123.50;5037865;28;20680;-69
2023/10/29 00:26:34;;;;;;;3.80;2.90;;;;;;;14.38;58.39;96124.91;5031944;28;20199;-69
2023/10/29 00:29:00;;;;;;;3.73;2.87;;;;;;;14.39;58.56;96116.00;5030180;28;20238;-69
2023/10/29 00:31:26;;;;;;;4.87;2.90;;;;;;;14.38;58.42;96122.28;5035273;28;20933;-70
2023/10/29 00:33:51;;;;;;;3.07;2.77;;;;;;;14.39;58.74;96119.47;5028636;28;20437;-69
2023/10/29 00:36:16;;;;;;;4.90;3.13;;;;;;;14.36;58.76;96127.75;5037395;28;20605;-69
2023/10/29 00:38:42;;;;;;;5.90;2.80;;;;;;;14.39;58.89;96126.53;5029416;28;20207;-71
2023/10/29 00:41:07;;;;;;;3.97;3.30;;;;;;;14.39;59.00;96127.38;5027651;28;20195;-69
2023/10/29 00:43:43;;;;;;;8.83;3.50;;;;;;;14.36;58.87;96129.59;5040528;28;20201;-68
2023/10/29 00:46:10;;;;;;;6.97;3.13;;;;;;;14.37;58.78;96128.56;5029250;28;20207;-68
2023/10/29 00:48:37;;;;;;;4.13;2.23;;;;;;;14.33;58.63;96124.72;5029963;28;20835;-70
2023/10/29 00:51:03;;;;;;;4.43;2.50;;;;;;;14.34;58.76;96129.00;5031999;28;20488;-68
2023/10/29 00:53:29;;;;;;;6.10;2.50;;;;;;;14.38;58.51;96124.91;5029679;28;21115;-68
2023/10/29 00:55:54;;;;;;;3.33;2.67;;;;;;;14.38;57.97;96128.38;5024669;28;20433;-69
2023/10/29 00:58:20;;;;;;;4.10;2.57;;;;;;;14.34;57.99;96113.19;5029408;28;20709;-69
2023/10/29 01:00:46;;;;;;;4.50;2.37;;;;;;;14.33;58.16;96114.19;5040370;28;20195;-69
2023/10/29 01:03:11;;;;;;;4.20;2.43;;;;;;;14.36;58.27;96097.97;5036948;28;20223;-69
2023/10/29 01:05:38;;;;;;;2.90;2.33;;;;;;;14.35;58.25;96094.53;5037337;28;20200;-69
2023/10/29 01:08:05;;;;;;;8.30;3.47;;;;;;;14.32;58.96;96100.19;5037267;28;20638;-71
2023/10/29 01:10:31;;;;;;;4.10;2.60;;;;;;;14.33;58.93;96091.28;5027371;28;20991;-69
2023/10/29 01:12:57;;;;;;;2.50;2.20;;;;;;;14.34;58.46;96106.06;5020379;28;20434;-69
2023/10/29 01:15:22;;;;;;;3.97;2.77;;;;;;;14.30;58.71;96107.50;5031630;28;20426;-70
2023/10/29 01:17:48;;;;;;;6.20;2.13;;;;;;;14.32;58.77;96112.56;5027761;28;20250;-68
2023/10/29 01:20:13;;;;;;;3.57;2.37;;;;;;;14.30;58.28;96104.88;5030675;28;20188;-68
2023/10/29 01:22:39;;;;;;;4.07;2.50;;;;;;;14.32;58.23;96099.38;5028860;28;20732;-71
2023/10/29 01:25:09;;;;;;;5.73;2.23;;;;;;;14.33;58.07;96096.53;5035522;28;20606;-70
2023/10/29 01:27:34;;;;;;;4.60;2.20;;;;;;;14.36;57.76;96084.81;5029389;28;20222;-71
2023/10/29 01:30:00;;;;;;;4.63;2.40;;;;;;;14.25;57.97;96084.38;5031796;28;20813;-70
2023/10/29 01:32:25;;;;;;;5.03;2.30;;;;;;;14.19;57.96;96069.41;5036904;28;20298;-70
2023/10/29 01:34:50;;;;;;;4.60;2.70;;;;;;;14.23;58.08;96078.53;5042936;28;20245;-70
2023/10/29 01:37:16;;;;;;;3.90;2.63;;;;;;;14.27;57.82;96063.91;5028079;28;20242;-69
2023/10/29 01:39:41;;;;;;;5.93;2.67;;;;;;;14.29;57.91;96056.63;5043773;28;20194;-68
2023/10/29 01:42:07;;;;;;;4.00;2.60;;;;;;;14.25;57.81;96068.56;5027895;28;20312;-71
2023/10/29 01:44:32;;;;;;;3.23;2.63;;;;;;;14.23;57.72;96052.19;5032962;28;20187;-68
2023/10/29 01:46:58;;;;;;;3.60;2.30;;;;;;;14.28;57.46;96047.09;5027897;28;20282;-70
2023/10/29 01:49:23;;;;;;;2.73;2.10;;;;;;;14.27;57.85;96032.28;5036506;28;20270;-70
2023/10/29 01:51:49;;;;;;;3.33;2.43;;;;;;;14.24;58.12;96045.06;5027459;28;20239;-69
2023/10/29 01:54:15;;;;;;;4.77;2.20;;;;;;;14.28;58.06;96051.56;5030469;28;20278;-71
2023/10/29 01:56:41;;;;;;;4.03;2.30;;;;;;;14.28;58.13;96041.81;5030904;28;20517;-70
2023/10/29 01:59:07;;;;;;;2.97;2.27;;;;;;;14.30;57.92;96046.91;5027812;28;20218;-70
2023/10/29 02:01:32;;;;;;;2.67;2.30;;;;;;;14.25;57.83;96052.75;5030345;28;20462;-68
2023/10/29 02:03:58;;;;;;;3.97;2.30;;;;;;;14.12;57.62;96043.03;5039023;28;20194;-69
2023/10/29 02:06:23;;;;;;;3.00;2.07;;;;;;;14.15;57.39;96041.03;5031331;28;20219;-70
2023/10/29 02:08:48;;;;;;;4.13;2.50;;;;;;;14.04;57.59;96039.78;5035260;28;20218;-68
2023/10/29 02:11:14;;;;;;;3.40;2.33;;;;;;;14.03;57.45;96017.94;5030461;28;20235;-70
2023/10/29 02:13:39;;;;;;;4.07;2.30;;;;;;;14.12;57.20;96034.31;5027659;28;20276;-68
2023/10/29 02:16:05;;;;;;;5.23;2.80;;;;;;;14.15;57.43;96022.59;5031251;28;20668;-68
2023/10/29 02:18:30;;;;;;;7.80;2.33;;;;;;;14.18;57.38;96011.63;5029877;28;20230;-70
2023/10/29 02:20:56;;;;;;;6.57;2.10;;;;;;;14.16;57.17;96014.47;5026887;28;20213;-69
2023/10/29 02:23:21;;;;;;;3.67;2.07;;;;;;;14.11;57.00;96003.75;5030422;28;20403;-70
2023/10/29 02:25:47;;;;;;;2.77;2.00;;;;;;;14.13;56.74;96001.69;5031490;28;20200;-69
2023/10/29 02:28:12;;;;;;;3.60;2.40;;;;;;;14.15;56.67;96004.94;5036120;28;20199;-69
2023/10/29 02:30:38;;;;;;;4.87;2.20;;;;;;;14.15;56.50;96007.56;5026275;28;20648;-69
2023/10/29 02:33:03;;;;;;;2.27;2.03;;;;;;;14.16;56.58;96014.47;5039210;28;20183;-69
2023/10/29 02:35:29;;;;;;;2.67;1.90;;;;;;;14.13;56.71;96017.50;5028606;28;20275;-69
2023/10/29 02:37:54;;;;;;;5.00;2.20;;;;;;;14.13;56.69;96014.88;5028317;28;20646;-68
2023/10/29 02:40:20;;;;;;;2.83;2.07;;;;;;;14.12;56.66;96007.97;5029766;28;20554;-70
2023/10/29 02:42:46;;;;;;;1.87;1.60;;;;;;;14.12;56.71;96015.88;5035265;28;20190;-71
2023/10/29 02:45:11;;;;;;;5.07;2.07;;;;;;;14.11;56.69;96009.81;5034093;28;20206;-70
2023/10/29 02:47:37;;;;;;;2.80;1.77;;;;;;;14.11;56.46;96014.28;5036066;28;20449;-69
2023/10/29 02:50:03;;;;;;;3.20;2.10;;;;;;;14.13;56.51;96018.31;5029833;28;20682;-70
2023/10/29 02:52:29;;;;;;;3.33;1.80;;;;;;;14.11;56.44;96009.81;5028462;28;20848;-70
2023/10/29 02:54:56;;;;;;;3.73;2.00;;;;;;;14.12;56.36;96021.16;5031518;28;20441;-70
2023/10/29 02:57:23;;;;;;;3.43;2.10;;;;;;;14.10;56.83;96002.91;5031234;28;20203;-70
2023/10/29 02:59:48;;;;;;;2.40;1.70;;;;;;;14.08;56.97;96004.16;5029593;28;20458;-70
2023/10/29 03:02:13;;;;;;;5.07;2.20;;;;;;;14.07;57.13;96002.53;5034805;28;20454;-69
2023/10/29 03:04:39;;;;;;;4.00;1.90;;;;;;;14.03;56.93;96006.56;5031685;28;20242;-70
2023/10/29 03:07:04;;;;;;;2.63;2.03;;;;;;;13.97;56.93;96003.75;5038261;28;20271;-68
2023/10/29 03:09:30;;;;;;;4.40;2.40;;;;;;;13.99;56.82;96003.53;5031416;28;20195;-69
2023/10/29 03:11:55;;;;;;;2.57;2.10;;;;;;;13.97;57.06;96005.56;5038916;28;20771;-70
2023/10/29 03:14:21;;;;;;;5.00;2.47;;;;;;;13.94;57.43;95998.88;5044068;28;20241;-68
2023/10/29 03:16:47;;;;;;;2.37;2.17;;;;;;;13.88;57.72;95993.63;5037878;28;20192;-69
2023/10/29 03:19:12;;;;;;;5.03;1.93;;;;;;;13.88;57.86;95989.13;5035492;28;20286;-68
2023/10/29 03:21:37;;;;;;;3.00;2.13;;;;;;;13.87;57.84;95992.00;5041612;28;20639;-69
2023/10/29 03:24:03;;;;;;;2.93;1.80;;;;;;;13.81;57.85;95993.63;5042884;28;20242;-69
2023/10/29 03:26:29;;;;;;;3.53;1.90;;;;;;;13.81;57.87;95988.34;5044565;28;20197;-69
2023/10/29 03:28:54;;;;;;;5.63;1.70;;;;;;;13.78;57.88;95997.47;5029737;28;20974;-70
2023/10/29 03:31:20;;;;;;;1.83;1.60;;;;;;;13.78;58.00;95997.47;5030230;28;20212;-69
2023/10/29 03:33:46;;;;;;;6.80;1.90;;;;;;;13.74;58.18;95993.59;5033732;28;20229;-68
2023/10/29 03:36:12;;;;;;;2.90;2.20;;;;;;;13.67;58.68;95998.88;5031272;28;20192;-69
2023/10/29 03:38:38;;;;;;;2.97;2.00;;;;;;;13.69;58.65;95998.66;5030069;28;20472;-69
2023/10/29 03:41:04;;;;;;;3.27;1.87;;;;;;;13.68;58.69;96004.94;5037431;28;20454;-70
2023/10/29 03:43:29;;;;;;;2.63;2.10;;;;;;;13.70;58.32;96002.13;5042011;28;20620;-69
2023/10/29 03:45:55;;;;;;;2.60;1.80;;;;;;;13.67;58.35;95998.88;5030625;28;20199;-70
2023/10/29 03:48:20;;;;;;;2.40;1.53;;;;;;;13.74;58.06;95998.88;5037315;28;20207;-69
2023/10/29 03:50:46;;;;;;;3.53;1.70;;;;;;;13.73;57.39;96012.25;5031042;28;20215;-69
2023/10/29 03:53:11;;;;;;;5.13;1.20;;;;;;;13.79;57.04;96006.16;5029755;28;20221;-67
2023/10/29 03:55:37;;;;;;;7.80;1.60;;;;;;;13.85;56.09;96004.53;5036956;28;20232;-70
2023/10/29 03:58:03;;;;;;;3.27;1.60;;;;;;;13.87;55.19;96002.53;5039452;28;20661;-69
2023/10/29 04:00:29;;;;;;;3.43;1.30;;;;;;;13.93;54.86;95999.88;5039566;28;20219;-69
2023/10/29 04:02:55;;;;;;;1.67;1.10;;;;;;;14.00;54.55;96002.53;5034855;28;20195;-70
2023/10/29 04:05:21;;;;;;;1.50;1.20;;;;;;;14.07;53.67;95998.06;5041191;28;20438;-69
2023/10/29 04:07:47;;;;;;;1.30;1.10;;;;;;;14.10;53.62;95996.84;5013114;28;20544;-70
2023/10/29 04:10:12;;;;;;;2.10;1.20;;;;;;;14.15;53.26;96007.56;5032486;28;20465;-69
2023/10/29 04:12:38;;;;;;;3.83;1.43;;;;;;;14.16;52.93;96006.56;5032677;28;20310;-69
2023/10/29 04:15:04;;;;;;;1.63;1.10;;;;;;;14.21;52.69;95990.13;5030569;28;20195;-70
2023/10/29 04:17:30;;;;;;;1.60;1.23;;;;;;;14.24;52.52;95993.16;5031689;28;20207;-68
2023/10/29 04:19:56;;;;;;;1.57;1.00;;;;;;;14.27;52.42;95989.31;5025806;28;20435;-69
2023/10/29 04:22:22;;;;;;;1.37;1.00;;;;;;;14.28;52.15;95983.03;5028743;28;20430;-68
2023/10/29 04:24:48;;;;;;;5.60;1.17;;;;;;;14.33;52.07;95979.78;5029274;28;20261;-70
2023/10/29 04:27:13;;;;;;;2.33;1.10;;;;;;;14.38;51.65;95983.44;5030899;28;20898;-69
2023/10/29 04:29:39;;;;;;;1.60;1.30;;;;;;;14.42;51.86;95978.53;5014968;28;20196;-68
2023/10/29 04:32:04;;;;;;;2.33;1.40;;;;;;;14.44;51.93;95987.06;5029215;28;20910;-68
2023/10/29 04:34:30;;;;;;;1.70;1.60;;;;;;;14.46;52.11;95969.22;5035329;28;20194;-69
2023/10/29 04:36:55;;;;;;;2.50;2.10;;;;;;;14.48;52.27;95966.38;5029203;28;20314;-69
2023/10/29 04:39:21;;;;;;;1.27;1.17;;;;;;;14.49;52.33;95974.06;5028449;28;20207;-70
2023/10/29 04:41:47;;;;;;;2.50;1.00;;;;;;;14.52;51.96;95975.50;5028729;28;20234;-70
2023/10/29 04:44:12;;;;;;;2.80;1.03;;;;;;;14.49;51.85;95973.25;5028539;28;20212;-69
2023/10/29 04:46:38;;;;;;;2.03;1.17;;;;;;;14.49;51.52;95974.06;5028363;28;20191;-70
2023/10/29 04:49:03;;;;;;;2.63;1.50;;;;;;;14.53;52.01;95979.75;5040294;28;20235;-69
2023/10/29 04:51:30;;;;;;;1.60;1.13;;;;;;;14.50;52.60;95980.94;5030577;28;20293;-68
2023/10/29 04:53:55;;;;;;;4.30;1.20;;;;;;;14.49;52.53;95976.69;5032686;28;20274;-70
2023/10/29 04:56:21;;;;;;;2.17;1.23;;;;;;;14.47;52.31;95975.28;5033877;28;20435;-70
2023/10/29 04:58:46;;;;;;;2.27;1.40;;;;;;;14.46;52.01;95969.22;5029803;28;20210;-70
2023/10/29 05:01:13;;;;;;;1.37;1.10;;;;;;;14.44;51.90;95969.41;5026080;28;20568;-69
2023/10/29 05:03:39;;;;;;;1.77;1.20;;;;;;;14.46;51.75;95966.59;5037590;28;20600;-69
2023/10/29 05:06:05;;;;;;;2.70;1.50;;;;;;;14.46;52.07;95958.69;5027092;28;20477;-70
2023/10/29 05:08:30;;;;;;;1.73;1.30;;;;;;;14.39;52.73;95947.31;5026568;28;20215;-67
2023/10/29 05:10:56;;;;;;;3.60;3.30;;;;;;;14.41;52.88;95950.56;5025875;28;20471;-68
2023/10/29 05:13:21;;;;;;;1.73;1.63;;;;;;;14.40;52.46;95941.88;5027924;28;20191;-70
2023/10/29 05:15:47;;;;;;;2.67;1.10;;;;;;;14.39;52.29;95948.16;5027710;28;20184;-70
2023/10/29 05:18:12;;;;;;;2.53;1.40;;;;;;;14.41;51.77;95947.94;5033755;28;20284;-70
2023/10/29 05:20:38;;;;;;;2.90;1.50;;;;;;;14.34;52.73;95955.06;5027034;28;20188;-69
2023/10/29 05:23:04;;;;;;;2.27;1.70;;;;;;;14.27;53.11;95955.88;5026974;28;20187;-69
2023/10/29 05:25:30;;;;;;;2.53;2.30;;;;;;;14.33;52.88;95948.97;5046997;28;20187;-69
2023/10/29 05:27:56;;;;;;;3.93;2.30;;;;;;;14.32;52.81;95954.44;5026573;28;20302;-70
2023/10/29 05:30:22;;;;;;;2.10;1.93;;;;;;;14.28;52.23;95952.22;5027091;28;20526;-67
2023/10/29 05:32:47;;;;;;;2.47;1.80;;;;;;;14.25;52.10;95950.00;5027640;28;20258;-68
2023/10/29 05:35:13;;;;;;;7.73;2.00;;;;;;;14.22;52.32;95946.97;5027011;28;20560;-69
2023/10/29 05:37:39;;;;;;;2.77;1.73;;;;;;;14.16;52.69;95948.59;5027258;28;20214;-69
2023/10/29 05:40:07;;;;;;;2.60;1.53;;;;;;;14.21;52.51;95948.81;5026489;28;20207;-69
2023/10/29 05:42:33;;;;;;;1.93;1.50;;;;;;;14.18;52.48;95954.47;5035680;28;20602;-69
2023/10/29 05:44:58;;;;;;;2.40;1.30;;;;;;;14.18;52.22;95959.75;5026904;28;21037;-68
2023/10/29 05:47:24;;;;;;;5.00;1.43;;;;;;;14.20;52.28;95965.63;5023088;28;20462;-69
2023/10/29 05:49:49;;;;;;;2.63;1.50;;;;;;;14.28;52.38;95956.69;5027688;28;20275;-70
2023/10/29 05:52:15;;;;;;;3.10;1.27;;;;;;;14.33;52.17;95958.72;5026542;28;20697;-69
2023/10/29 05:54:40;;;;;;;2.10;1.40;;;;;;;14.36;52.40;95945.13;5030807;28;20660;-69
2023/10/29 05:57:06;;;;;;;1.93;1.73;;;;;;;14.32;52.34;95944.72;5025913;28;21458;-70
2023/10/29 05:59:32;;;;;;;1.83;1.43;;;;;;;14.35;52.42;95948.78;5032534;28;20234;-71
2023/10/29 06:01:58;;;;;;;1.90;1.40;;;;;;;14.37;52.22;95941.44;5036678;28;20240;-70
2023/10/29 06:04:23;;;;;;;1.70;1.40;;;;;;;14.39;52.28;95949.97;5030127;28;20194;-70
2023/10/29 06:06:49;;;;;;;3.37;1.57;;;;;;;14.44;52.23;95950.97;5029151;28;20525;-69
2023/10/29 06:09:14;;;;;;;3.20;1.50;;;;;;;14.46;52.17;95957.84;5021162;28;20250;-70
2023/10/29 06:11:41;;;;;;;1.90;1.70;;;;;;;14.46;51.97;95961.31;5028307;28;20302;-70
2023/10/29 06:14:07;;;;;;;2.27;1.50;;;;;;;14.48;51.84;95971.63;5036670;28;20548;-69
2023/10/29 06:16:32;;;;;;;2.30;1.50;;;;;;;14.50;51.95;95978.31;5040260;28;20437;-69
2023/10/29 06:18:58;;;;;;;4.03;1.50;;;;;;;14.54;52.40;95979.53;5034277;28;20218;-69
2023/10/29 06:21:23;;;;;;;3.53;1.90;;;;;;;14.56;52.91;95980.13;5035630;28;20179;-69
2023/10/29 06:23:49;;;;;;;3.30;1.57;;;;;;;14.55;53.10;95978.50;5022486;28;20195;-70
2023/10/29 06:26:15;;;;;;;2.33;1.30;;;;;;;14.57;52.61;95981.75;5029972;28;20196;-69
2023/10/29 06:28:41;;;;;;;2.43;1.67;;;;;;;14.58;52.17;95978.09;5024189;28;21238;-69
2023/10/29 06:31:07;;;;;;;5.90;1.80;;;;;;;14.67;51.37;95980.50;5030282;28;20506;-69
2023/10/29 06:33:32;;;;;;;2.77;1.63;;;;;;;14.71;51.07;95984.38;5039169;28;20184;-69
2023/10/29 06:35:58;;;;;;;1.50;1.40;;;;;;;14.74;51.08;95991.88;5038097;28;20196;-70
2023/10/29 06:38:24;;;;;;;9.20;1.27;;;;;;;14.78;50.93;96002.81;5037293;28;21318;-70
2023/10/29 06:40:49;;;;;;;3.23;1.20;;;;;;;14.81;50.26;96015.56;5037351;28;20414;-70
2023/10/29 06:43:15;;;;;;;1.30;1.13;;;;;;;14.84;49.92;96015.97;5043311;28;20218;-70
2023/10/29 06:45:40;;;;;;;1.40;1.27;;;;;;;14.89;49.48;96016.16;5031484;28;20219;-68
2023/10/29 06:48:06;;;;;;;2.10;1.40;;;;;;;14.98;49.30;96023.84;5038808;28;20218;-69
2023/10/29 06:50:31;;;;;;;1.70;1.00;;;;;;;15.03;48.80;96031.94;5031452;28;20207;-68
2023/10/29 06:52:57;;;;;;;2.50;1.00;;;;;;;15.08;48.39;96034.75;5038186;28;20218;-68
2023/10/29 06:55:23;;;;;;;1.67;1.40;;;;;;;15.20;48.35;96034.91;5037660;28;20257;-68
2023/10/29 06:57:49;;;;;;;1.60;1.20;;;;;;;15.28;48.09;96045.22;5037880;28;20709;-69
2023/10/29 07:00:15;;;;;;;1.60;1.50;;;;;;;15.39;47.95;96049.03;5039843;28;20461;-69
2023/10/29 07:02:40;;;;;;;4.30;1.10;;;;;;;15.44;47.76;96054.50;5037806;28;20489;-68
2023/10/29 07:05:06;;;;;;;1.57;1.27;;;;;;;15.52;47.70;96064.00;5039187;28;20433;-69
2023/10/29 07:07:34;;;;;;;1.70;0.90;;;;;;;15.56;47.56;96059.09;5034478;28;20212;-69
2023/10/29 07:10:01;;;;;;;2.17;1.40;;;;;;;15.63;47.46;96057.22;5037775;28;20429;-69
2023/10/29 07:12:26;;;;;;;1.17;1.07;;;;;;;15.68;47.58;96067.97;5030326;28;20474;-69
2023/10/29 07:14:52;;;;;;;3.83;1.33;;;;;;;15.72;47.24;96066.53;5036865;28;20460;-69
2023/10/29 07:17:17;;;;;;;1.87;1.60;;;;;;;15.77;47.41;96068.53;5037982;28;20666;-68
2023/10/29 07:19:43;;;;;;;1.33;1.13;;;;;;;15.81;47.45;96073.16;5047083;28;20768;-70
2023/10/29 07:22:08;;;;;;;2.40;1.50;;;;;;;15.82;47.47;96066.88;5029939;28;20194;-69
2023/10/29 07:24:35;;;;;;;1.80;1.10;;;;;;;15.86;47.62;96072.56;5040600;28;20606;-69
2023/10/29 07:27:01;;;;;;;1.33;1.23;;;;;;;15.87;47.66;96068.09;5032735;28;20278;-69
2023/10/29 07:29:27;;;;;;;1.67;1.40;;;;;;;15.90;47.68;96078.22;5037880;28;20737;-70
2023/10/29 07:31:52;;;;;;;2.13;1.93;;;;;;;15.92;47.80;96070.88;5030387;28;20466;-68
2023/10/29 07:34:17;;;;;;;2.30;2.10;;;;;;;15.95;47.86;96071.25;5029893;28;20194;-69
2023/10/29 07:36:44;;;;;;;2.20;1.93;;;;;;;15.96;47.69;96072.09;5030905;28;20273;-69
2023/10/29 07:39:10;;;;;;;5.47;3.27;;;;;;;16.02;47.75;96081.78;5030030;28;20207;-68
2023/10/29 07:41:36;;;;;;;2.40;1.90;;;;;;;16.04;47.72;96082.38;5022883;28;20825;-70
2023/10/29 07:44:01;;;;;;;1.40;1.20;;;;;;;16.07;47.71;96073.22;5022912;28;20466;-70
2023/10/29 07:46:26;;;;;;;7.63;4.40;;;;;;;16.08;47.79;96080.13;5053386;28;20566;-69
2023/10/29 07:48:52;;;;;;;13.70;11.40;;;;;;;16.12;47.83;96081.31;5036399;28;20242;-70
2023/10/29 07:51:17;;;;;;;3.37;2.60;;;;;;;16.15;47.91;96074.78;5029106;28;20239;-70
2023/10/29 07:53:43;;;;;;;1.60;1.37;;;;;;;16.15;47.82;96075.59;5029235;28;20234;-69
2023/10/29 07:56:13;;;;;;;3.97;3.30;;;;;;;16.18;47.83;96083.13;5034360;28;20195;-69
2023/10/29 07:58:38;;;;;;;7.17;2.20;;;;;;;16.23;47.84;96087.75;5027085;28;20728;-69
2023/10/29 08:01:14;;;;;;;4.07;1.80;;;;;;;16.26;48.03;96095.22;5037646;28;20568;-70
2023/10/29 08:03:41;;;;;;;3.50;3.03;;;;;;;16.32;48.05;96104.94;5031048;28;20274;-70
2023/10/29 08:06:07;;;;;;;2.37;1.60;;;;;;;16.33;47.90;96109.22;5029617;28;20691;-69
2023/10/29 08:08:32;;;;;;;9.43;6.17;;;;;;;16.41;47.96;96106.28;5029217;28;20465;-69
2023/10/29 08:10:58;;;;;;;6.60;5.30;;;;;;;16.50;48.29;96111.34;5031736;28;20286;-69
2023/10/29 08:13:23;;;;;;;7.17;5.27;;;;;;;16.62;48.73;96100.84;5029246;28;20223;-69
2023/10/29 08:15:49;;;;;;;4.13;3.23;;;;;;;16.74;49.12;96107.84;5029431;28;20279;-70
2023/10/29 08:18:14;;;;;;;4.93;4.40;;;;;;;16.86;49.22;96113.22;5028853;28;20273;-69
2023/10/29 08:20:40;;;;;;;6.17;3.20;;;;;;;16.93;49.40;96113.16;5032925;28;20245;-69
2023/10/29 08:23:06;;;;;;;2.50;2.30;;;;;;;16.98;49.09;96118.63;5033952;28;20608;-69
2023/10/29 08:25:32;;;;;;;6.60;5.60;;;;;;;17.00;48.77;96113.94;5040287;28;20434;-69
2023/10/29 08:27:58;;;;;;;5.80;3.40;;;;;;;17.01;48.58;96126.13;5031850;28;20241;-70
2023/10/29 08:30:23;;;;;;;5.43;2.70;;;;;;;17.03;48.47;96139.94;5032804;28;20522;-69
2023/10/29 08:32:49;;;;;;;2.93;2.70;;;;;;;17.06;48.52;96138.72;5028561;28;20716;-69
2023/10/29 08:35:14;;;;;;;2.47;2.27;;;;;;;17.09;48.66;96140.09;5028883;28;20593;-70
2023/10/29 08:37:40;;;;;;;3.27;1.57;;;;;;;17.13;48.66;96141.28;5032348;28;20236;-71
2023/10/29 08:40:06;;;;;;;6.37;4.63;;;;;;;17.17;48.78;96145.09;5033638;28;20691;-69
2023/10/29 08:42:32;;;;;;;5.60;4.30;;;;;;;17.20;48.85;96148.09;5033657;28;20547;-70
2023/10/29 08:44:58;;;;;;;4.93;2.83;;;;;;;17.22;48.56;96153.19;5032946;28;20539;-68
2023/10/29 08:47:23;;;;;;;5.00;2.60;;;;;;;17.25;48.57;96147.47;5032691;28;20458;-68
2023/10/29 08:49:50;;;;;;;3.87;2.43;;;;;;;17.24;48.47;96145.84;5030799;28;21008;-69
2023/10/29 08:52:17;;;;;;;3.43;1.30;;;;;;;17.22;47.84;96139.13;5032770;28;20207;-69
2023/10/29 08:54:43;;;;;;;5.20;3.23;;;;;;;17.23;48.67;96135.47;5040345;28;20456;-69
2023/10/29 08:57:08;;;;;;;11.33;8.90;;;;;;;17.27;48.58;96139.31;5028880;28;20435;-69
2023/10/29 08:59:34;;;;;;;23.60;19.30;;;;;;;17.32;48.82;96120.94;5028567;28;20450;-70
2023/10/29 09:01:59;;;;;;;27.10;20.03;;;;;;;17.36;48.90;96111.50;5029342;28;20199;-71
2023/10/29 09:04:26;;;;;;;34.83;26.53;;;;;;;17.42;49.17;96121.22;5039839;28;20191;-71
2023/10/29 09:06:51;;;;;;;8.40;7.33;;;;;;;17.47;49.43;96117.88;5036458;28;20195;-70
2023/10/29 09:09:17;;;;;;;12.43;8.07;;;;;;;17.52;49.51;96115.38;5032055;28;20948;-69
2023/10/29 09:11:44;;;;;;;15.10;9.27;;;;;;;17.55;49.55;96112.28;5027676;28;20212;-69
2023/10/29 09:14:11;;;;;;;4.20;3.07;;;;;;;17.61;49.37;96111.41;5036930;28;20202;-71
2023/10/29 09:16:37;;;;;;;2.40;2.17;;;;;;;17.63;48.43;96105.88;5031142;28;20935;-70
2023/10/29 09:19:03;;;;;;;6.50;2.80;;;;;;;17.69;48.27;96104.16;5034150;28;20445;-69
2023/10/29 09:21:28;;;;;;;2.17;1.97;;;;;;;17.76;48.24;96105.69;5037546;28;20194;-70
2023/10/29 09:23:54;;;;;;;3.10;1.60;;;;;;;17.84;47.92;96101.91;5028577;28;21213;-70
2023/10/29 09:26:19;;;;;;;3.10;2.80;;;;;;;17.88;47.55;96095.13;5029952;28;20207;-70
2023/10/29 09:28:45;;;;;;;9.17;6.10;;;;;;;17.90;47.56;96090.41;5032519;28;20292;-69
2023/10/29 09:31:17;;;;;;;2.20;2.00;;;;;;;17.91;47.56;96085.91;5036535;28;20239;-70
2023/10/29 09:33:44;;;;;;;2.00;1.20;;;;;;;17.86;47.27;96077.81;5010139;28;20196;-70
2023/10/29 09:36:09;;;;;;;2.87;1.60;;;;;;;17.87;47.43;96077.63;5028028;28;20524;-70
2023/10/29 09:38:34;;;;;;;1.60;1.03;;;;;;;17.90;47.64;96068.41;5027113;28;20536;-70
2023/10/29 09:41:00;;;;;;;1.77;1.63;;;;;;;17.91;47.85;96081.41;5028154;28;20187;-70
2023/10/29 09:43:27;;;;;;;4.63;1.93;;;;;;;17.85;48.16;96079.69;5036151;28;20610;-70
2023/10/29 09:45:52;;;;;;;8.60;2.47;;;;;;;17.86;48.26;96077.81;5027076;28;20219;-69
2023/10/29 09:48:18;;;;;;;2.30;1.80;;;;;;;17.92;48.27;96069.78;5029984;28;20529;-69
2023/10/29 09:50:44;;;;;;;4.27;1.83;;;;;;;17.98;47.78;96073.41;5032460;28;20677;-70
2023/10/29 09:53:14;;;;;;;9.73;7.03;;;;;;;18.04;47.86;96064.56;5024180;28;20200;-70
2023/10/29 09:55:40;;;;;;;4.53;1.50;;;;;;;18.08;47.63;96064.91;5031065;28;20279;-71
2023/10/29 09:58:06;;;;;;;3.50;1.53;;;;;;;18.11;47.65;96064.44;5028057;28;20541;-71
2023/10/29 10:00:32;;;;;;;1.97;1.60;;;;;;;18.11;47.24;96070.53;5027563;28;20196;-69
2023/10/29 10:02:58;;;;;;;4.60;2.63;;;;;;;18.18;47.44;96051.88;5037689;28;20619;-70
2023/10/29 10:05:25;;;;;;;2.70;1.50;;;;;;;18.22;47.26;96039.78;5032067;28;20529;-68
2023/10/29 10:07:52;;;;;;;1.80;1.70;;;;;;;18.31;47.55;96044.75;5036346;28;20326;-71
2023/10/29 10:10:19;;;;;;;2.03;1.83;;;;;;;18.36;47.33;96039.56;5035404;28;20649;-69
2023/10/29 10:12:49;;;;;;;6.83;1.87;;;;;;;18.33;47.11;96040.03;5030003;28;20463;-71
2023/10/29 10:15:19;;;;;;;2.53;1.53;;;;;;;18.41;46.95;96039.66;5043527;28;20524;-70
2023/10/29 10:17:48;;;;;;;2.03;1.80;;;;;;;18.43;46.89;96029.63;5040344;28;20457;-70
2023/10/29 10:20:14;;;;;;;2.30;1.60;;;;;;;18.48;46.91;96040.38;5031496;28;20851;-69
2023/10/29 10:22:43;;;;;;;1.77;1.60;;;;;;;18.48;47.04;96037.72;5046749;28;20433;-69
2023/10/29 10:25:17;;;;;;;1.77;1.57;;;;;;;18.49;47.16;96035.88;5035656;28;20605;-70
2023/10/29 10:27:51;;;;;;;3.53;1.67;;;;;;;18.39;47.22;96031.97;5030860;28;20457;-70
2023/10/29 10:30:26;;;;;;;12.00;1.90;;;;;;;18.36;47.77;96031.63;5031098;28;20943;-69
2023/10/29 10:32:53;;;;;;;3.90;1.70;;;;;;;18.41;47.86;96021.09;5027625;28;20544;-70
2023/10/29 10:35:18;;;;;;;5.87;2.67;;;;;;;18.42;48.03;96025.38;5033814;28;20922;-69
2023/10/29 10:37:56;;;;;;;4.17;1.80;;;;;;;18.43;48.44;96024.34;5040464;28;20466;-72
2023/10/29 10:40:26;;;;;;;2.50;1.90;;;;;;;18.42;48.80;96033.34;5038377;28;20245;-69
2023/10/29 10:42:55;;;;;;;2.37;1.97;;;;;;;18.49;48.78;96031.38;5031457;28;20427;-69
2023/10/29 10:45:27;;;;;;;4.77;1.80;;;;;;;18.56;49.13;96029.41;5041333;28;20522;-69
2023/10/29 10:47:57;;;;;;;4.10;2.30;;;;;;;18.59;48.97;96022.81;5033332;28;20492;-70
2023/10/29 10:50:25;;;;;;;2.40;2.10;;;;;;;18.66;48.71;96033.31;5030970;28;20500;-69
2023/10/29 10:52:51;;;;;;;2.50;2.10;;;;;;;18.70;48.80;96024.69;5042093;28;20556;-70
2023/10/29 10:55:17;;;;;;;2.43;2.03;;;;;;;18.71;48.96;96026.28;5038641;28;21093;-70
2023/10/29 10:57:44;;;;;;;2.50;2.00;;;;;;;18.61;48.90;96019.97;5028891;28;20333;-69
2023/10/29 11:00:11;;;;;;;3.63;2.10;;;;;;;18.67;48.24;96029.63;5031632;28;20537;-71
2023/10/29 11:02:39;;;;;;;2.13;1.93;;;;;;;18.70;48.48;96018.56;5031013;28;21205;-69
2023/10/29 11:05:05;;;;;;;2.83;1.97;;;;;;;18.70;48.68;96019.38;5040506;28;20541;-69
2023/10/29 11:07:31;;;;;;;2.83;2.50;;;;;;;18.67;48.85;96025.16;5029552;28;20458;-68
2023/10/29 11:09:58;;;;;;;3.27;1.67;;;;;;;18.58;49.04;96024.69;5033762;28;21085;-69
2023/10/29 11:12:24;;;;;;;3.40;1.80;;;;;;;18.64;48.61;96015.00;5030810;28;20493;-70
2023/10/29 11:15:19;;;;;;;2.60;1.50;;;;;;;18.62;48.65;96016.28;5029599;28;20422;-71
2023/10/29 11:18:05;;;;;;;2.00;1.80;;;;;;;18.72;48.68;96021.78;5040319;28;20210;-69
2023/10/29 11:20:41;;;;;;;2.10;1.80;;;;;;;18.77;48.76;96013.13;5027196;28;20491;-70
2023/10/29 11:23:09;;;;;;;4.63;1.80;;;;;;;18.82;48.64;95999.97;5030758;28;20434;-70
2023/10/29 11:25:39;;;;;;;5.53;2.07;;;;;;;18.79;48.75;95990.63;5033654;28;20436;-71
2023/10/29 11:28:04;;;;;;;2.20;2.10;;;;;;;18.82;48.51;95982.19;5036023;28;20454;-70
2023/10/29 11:30:30;;;;;;;5.77;1.30;;;;;;;18.91;48.29;95976.50;5032145;28;21161;-69